createdAt,value
2023-02-11T00:01:50.745Z,99094.53
2023-02-11T00:04:17.404Z,99058.13
2023-02-11T00:06:44.201Z,99083.59
2023-02-11T00:09:12.157Z,98966.72
2023-02-11T00:11:38.780Z,98945.78
2023-02-11T00:14:08.386Z,98921.28
2023-02-11T00:16:35.070Z,98881.88
2023-02-11T00:19:03.448Z,98615.13
2023-02-11T00:21:30.187Z,99092.56
2023-02-11T00:23:59.900Z,99097.97
2023-02-11T00:26:30.590Z,99060.53
2023-02-11T00:28:57.585Z,99000.59
2023-02-11T00:31:25.614Z,99070.06
2023-02-11T00:33:55.628Z,99031.66
2023-02-11T00:36:25.207Z,98945.22
2023-02-11T00:38:52.983Z,99072.91
2023-02-11T00:41:20.191Z,99001.59
2023-02-11T00:43:47.232Z,99066.38
2023-02-11T00:46:14.345Z,99064.16
2023-02-11T00:48:41.102Z,99062.00
2023-02-11T00:51:08.502Z,98795.22
2023-02-11T00:53:35.841Z,99051.25
2023-02-11T00:56:03.105Z,99007.16
2023-02-11T00:58:29.876Z,98947.97
2023-02-11T01:00:57.064Z,98978.94
2023-02-11T01:03:24.711Z,99015.72
2023-02-11T01:05:51.684Z,99002.56
2023-02-11T01:08:21.159Z,99150.34
2023-02-11T01:11:03.298Z,99076.03
2023-02-11T01:13:31.745Z,99113.84
2023-02-11T01:15:58.505Z,99093.00
2023-02-11T01:18:25.694Z,99068.50
2023-02-11T01:20:53.428Z,99082.94
2023-02-11T01:23:20.872Z,99089.41
2023-02-11T01:25:47.888Z,99084.13
2023-02-11T01:28:23.959Z,99023.22
2023-02-11T01:30:52.836Z,98968.03
2023-02-11T01:33:19.923Z,99044.19
2023-02-11T01:35:46.887Z,98963.38
2023-02-11T01:38:19.097Z,99096.75
2023-02-11T01:40:51.496Z,99107.81
2023-02-11T01:43:18.841Z,99111.13
2023-02-11T01:45:46.234Z,98995.28
2023-02-11T01:48:17.757Z,99131.59
2023-02-11T01:50:46.363Z,99123.00
2023-02-11T01:53:32.428Z,98862.25
2023-02-11T01:56:18.280Z,99130.34
2023-02-11T01:58:47.967Z,99076.25
2023-02-11T02:01:21.384Z,99156.72
2023-02-11T02:03:51.725Z,99146.09
2023-02-11T02:06:34.735Z,99153.19
2023-02-11T02:09:06.934Z,99051.00
2023-02-11T02:11:34.583Z,99158.50
2023-02-11T02:14:02.819Z,99161.63
2023-02-11T02:16:35.861Z,99050.31
2023-02-11T02:19:31.752Z,99156.72
2023-02-11T02:22:35.977Z,99159.84
2023-02-11T02:25:14.984Z,99105.56
2023-02-11T02:28:05.078Z,99140.81
2023-02-11T02:31:01.462Z,99176.47
2023-02-11T02:33:42.221Z,99169.53
2023-02-11T02:36:28.491Z,99162.59
2023-02-11T02:39:05.833Z,98988.91
2023-02-11T02:41:34.348Z,99129.09
2023-02-11T02:44:01.821Z,99119.31
2023-02-11T02:46:31.568Z,99177.97
2023-02-11T02:48:59.247Z,99178.50
2023-02-11T02:52:03.476Z,99185.03
2023-02-11T02:54:30.859Z,99195.28
2023-02-11T02:57:18.842Z,99208.41
2023-02-11T02:59:48.641Z,99210.84
2023-02-11T03:02:31.409Z,99131.75
2023-02-11T03:05:12.942Z,99147.56
2023-02-11T03:07:55.778Z,99110.31
2023-02-11T03:10:34.802Z,98942.72
2023-02-11T03:13:03.412Z,99136.91
2023-02-11T03:15:34.820Z,99222.75
2023-02-11T03:18:03.650Z,99169.69
2023-02-11T03:20:35.957Z,99234.81
2023-02-11T03:23:11.533Z,98990.13
2023-02-11T03:25:45.800Z,99186.91
2023-02-11T03:28:37.290Z,99317.28
2023-02-11T03:31:09.854Z,99321.72
2023-02-11T03:34:00.751Z,99282.59
2023-02-11T03:36:36.104Z,99380.22
2023-02-11T03:39:05.240Z,99347.47
2023-02-11T03:41:35.515Z,99272.81
2023-02-11T03:44:03.539Z,99304.28
2023-02-11T03:46:35.440Z,99372.53
2023-02-11T03:49:09.782Z,99278.53
2023-02-11T03:51:38.696Z,99344.50
2023-02-11T03:54:10.640Z,99360.75
2023-02-11T03:56:47.074Z,99345.47
2023-02-11T03:59:13.740Z,99080.06
2023-02-11T04:01:40.784Z,99319.34
2023-02-11T04:04:07.614Z,98969.56
2023-02-11T04:06:34.316Z,99202.38
2023-02-11T04:09:00.952Z,99403.69
2023-02-11T04:11:27.740Z,99413.94
2023-02-11T04:13:54.511Z,99337.28
2023-02-11T04:16:21.616Z,99428.84
2023-02-11T04:18:48.383Z,99361.84
2023-02-11T04:21:15.038Z,99365.00
2023-02-11T04:23:41.841Z,99393.22
2023-02-11T04:26:08.450Z,99190.00
2023-02-11T04:28:36.304Z,99376.16
2023-02-11T04:31:03.138Z,99428.63
2023-02-11T04:33:29.785Z,99415.28
2023-02-11T04:35:56.420Z,99364.84
2023-02-11T04:38:24.183Z,99370.50
2023-02-11T04:40:51.456Z,99408.06
2023-02-11T04:43:18.173Z,99425.75
2023-02-11T04:45:44.773Z,99460.31
2023-02-11T04:48:11.551Z,99074.84
2023-02-11T04:50:38.126Z,99507.59
2023-02-11T04:53:04.792Z,99343.06
2023-02-11T04:55:31.376Z,99425.63
2023-02-11T04:57:58.039Z,99410.00
2023-02-11T05:00:24.706Z,99502.22
2023-02-11T05:02:51.538Z,99356.25
2023-02-11T05:05:18.222Z,99556.34
2023-02-11T05:07:44.864Z,99562.34
2023-02-11T05:10:11.451Z,99389.69
2023-02-11T05:12:38.106Z,99558.75
2023-02-11T05:15:05.357Z,99527.50
2023-02-11T05:17:32.054Z,99384.16
2023-02-11T05:20:00.403Z,99609.91
2023-02-11T05:22:27.096Z,99403.31
2023-02-11T05:24:53.784Z,99501.00
2023-02-11T05:27:20.450Z,99623.97
2023-02-11T05:29:47.118Z,99545.28
2023-02-11T05:32:13.820Z,99588.66
2023-02-11T05:34:40.479Z,99494.19
2023-02-11T05:37:07.226Z,99346.94
2023-02-11T05:39:34.710Z,99395.28
2023-02-11T05:42:01.507Z,99386.28
2023-02-11T05:44:28.657Z,99614.00
2023-02-11T05:46:55.340Z,99587.06
2023-02-11T05:49:21.969Z,99623.22
2023-02-11T05:51:49.172Z,99658.50
2023-02-11T05:54:15.961Z,99630.31
2023-02-11T05:56:44.783Z,99635.00
2023-02-11T05:59:14.249Z,99713.00
2023-02-11T06:01:40.974Z,99617.88
2023-02-11T06:04:07.541Z,99542.06
2023-02-11T06:06:34.147Z,99747.53
2023-02-11T06:09:00.894Z,99634.50
2023-02-11T06:11:27.534Z,99706.44
2023-02-11T06:13:54.165Z,99760.38
2023-02-11T06:16:20.914Z,99592.94
2023-02-11T06:18:47.512Z,99774.13
2023-02-11T06:21:14.231Z,99778.34
2023-02-11T06:23:40.841Z,99726.69
2023-02-11T06:26:15.387Z,99707.38
2023-02-11T06:28:42.164Z,99728.66
2023-02-11T06:31:09.840Z,99650.41
2023-02-11T06:33:36.730Z,99707.09
2023-02-11T06:36:05.037Z,99830.53
2023-02-11T06:38:31.667Z,99676.03
2023-02-11T06:40:58.228Z,99759.84
2023-02-11T06:43:24.835Z,99868.94
2023-02-11T06:45:55.702Z,99875.97
2023-02-11T06:48:23.850Z,99682.59
2023-02-11T06:50:50.474Z,99675.44
2023-02-11T06:53:17.103Z,99791.28
2023-02-11T06:55:43.681Z,99828.34
2023-02-11T06:58:10.394Z,99918.75
2023-02-11T07:00:37.568Z,99863.78
2023-02-11T07:03:04.349Z,99842.81
2023-02-11T07:05:31.164Z,99875.78
2023-02-11T07:07:57.788Z,99817.75
2023-02-11T07:10:24.396Z,99859.19
2023-02-11T07:12:51.177Z,99855.31
2023-02-11T07:15:17.957Z,99887.00
2023-02-11T07:17:44.564Z,99974.63
2023-02-11T07:20:12.501Z,99925.75
2023-02-11T07:22:39.161Z,99962.91
2023-02-11T07:25:06.202Z,99629.19
2023-02-11T07:27:32.892Z,99854.16
2023-02-11T07:29:59.649Z,99843.56
2023-02-11T07:32:26.332Z,100006.28
2023-02-11T07:34:53.065Z,99942.50
2023-02-11T07:37:22.877Z,99964.31
2023-02-11T07:39:49.647Z,99943.56
2023-02-11T07:42:16.507Z,99986.41
2023-02-11T07:44:43.981Z,100020.50
2023-02-11T07:47:11.023Z,100067.84
2023-02-11T07:49:37.584Z,99817.31
2023-02-11T07:52:04.399Z,100080.38
2023-02-11T07:54:31.008Z,100081.41
2023-02-11T07:56:57.649Z,99613.81
2023-02-11T07:59:24.977Z,99915.28
2023-02-11T08:01:51.752Z,100092.00
2023-02-11T08:04:18.411Z,100090.91
2023-02-11T08:06:45.036Z,100088.97
2023-02-11T08:09:16.563Z,100081.78
2023-02-11T08:11:43.618Z,100119.97
2023-02-11T08:14:11.286Z,100113.38
2023-02-11T08:16:41.885Z,100112.38
2023-02-11T08:19:13.258Z,100131.84
2023-02-11T08:21:40.758Z,100074.03
2023-02-11T08:24:07.761Z,100154.13
2023-02-11T08:26:34.930Z,100169.31
2023-02-11T08:29:05.633Z,100187.31
2023-02-11T08:31:38.425Z,100124.09
2023-02-11T08:34:05.711Z,100199.34
2023-02-11T08:36:36.724Z,100211.25
2023-02-11T08:39:18.542Z,100234.38
2023-02-11T08:41:48.840Z,100233.53
2023-02-11T08:44:15.947Z,100237.09
2023-02-11T08:46:42.626Z,100251.38
2023-02-11T08:49:09.253Z,100252.84
2023-02-11T08:51:35.994Z,100266.41
2023-02-11T08:54:02.681Z,100275.88
2023-02-11T08:56:31.352Z,100306.97
2023-02-11T08:58:59.415Z,100131.66
2023-02-11T09:01:28.937Z,100278.44
2023-02-11T09:03:57.060Z,100311.13
2023-02-11T09:06:25.016Z,100312.53
2023-02-11T09:08:53.601Z,100322.38
2023-02-11T09:11:24.731Z,100326.78
2023-02-11T09:13:54.317Z,100344.63
2023-02-11T09:16:27.598Z,100347.75
2023-02-11T09:18:57.010Z,100282.31
2023-02-11T09:21:24.224Z,100340.41
2023-02-11T09:23:50.965Z,100393.78
2023-02-11T09:26:20.021Z,100370.63
2023-02-11T09:28:47.380Z,100371.34
2023-02-11T09:31:17.284Z,100375.91
2023-02-11T09:33:48.909Z,100166.28
2023-02-11T09:36:21.728Z,100360.25
2023-02-11T09:38:48.816Z,100406.63
2023-02-11T09:41:24.420Z,100413.03
2023-02-11T09:43:55.261Z,100396.63
2023-02-11T09:46:23.706Z,100426.69
2023-02-11T09:48:53.619Z,100224.59
2023-02-11T09:51:40.816Z,100306.72
2023-02-11T09:54:15.418Z,100276.66
2023-02-11T09:56:42.419Z,100438.69
2023-02-11T09:59:15.352Z,100447.81
2023-02-11T10:01:48.108Z,100446.91
2023-02-11T10:04:31.848Z,100459.66
2023-02-11T10:07:16.373Z,100392.19
2023-02-11T10:10:03.866Z,100428.38
2023-02-11T10:12:48.863Z,100488.25
2023-02-11T10:15:24.248Z,100502.31
2023-02-11T10:18:32.526Z,100503.63
2023-02-11T10:21:05.870Z,100410.94
2023-02-11T10:23:39.744Z,100534.47
2023-02-11T10:26:13.929Z,100543.16
2023-02-11T10:28:44.520Z,100556.59
2023-02-11T10:31:36.133Z,100559.25
2023-02-11T10:34:05.703Z,100560.38
2023-02-11T10:36:38.804Z,100555.97
2023-02-11T10:39:14.688Z,100442.00
2023-02-11T10:41:47.226Z,100593.31
2023-02-11T10:44:24.601Z,100602.66
2023-02-11T10:46:52.122Z,100608.66
2023-02-11T10:49:37.242Z,100610.00
2023-02-11T10:52:19.460Z,100624.50
2023-02-11T10:55:24.507Z,100627.56
2023-02-11T10:57:58.387Z,100637.91
2023-02-11T11:00:40.044Z,100643.75
2023-02-11T11:03:21.974Z,100587.47
2023-02-11T11:05:51.193Z,100656.69
2023-02-11T11:08:18.911Z,100657.44
2023-02-11T11:10:48.268Z,100670.03
2023-02-11T11:13:29.028Z,100571.22
2023-02-11T11:16:20.806Z,100684.38
2023-02-11T11:18:50.281Z,100458.75
2023-02-11T11:21:23.823Z,100677.97
2023-02-11T11:23:58.264Z,100418.34
2023-02-11T11:26:42.987Z,100714.72
2023-02-11T11:29:16.208Z,100728.44
2023-02-11T11:31:57.020Z,100683.06
2023-02-11T11:34:34.281Z,100741.63
2023-02-11T11:37:11.175Z,100736.38
2023-02-11T11:39:39.839Z,100729.72
2023-02-11T11:42:27.596Z,100643.03
2023-02-11T11:45:01.428Z,100747.31
2023-02-11T11:47:40.033Z,100764.56
2023-02-11T11:50:25.248Z,100780.84
2023-02-11T11:53:07.111Z,100718.59
2023-02-11T11:55:52.881Z,100693.00
2023-02-11T11:58:22.819Z,100801.38
2023-02-11T12:00:55.458Z,100800.81
2023-02-11T12:03:40.026Z,100809.34
2023-02-11T12:06:35.805Z,100814.69
2023-02-11T12:09:27.004Z,100821.59
2023-02-11T12:12:02.001Z,100818.00
2023-02-11T12:14:41.164Z,100813.41
2023-02-11T12:17:36.929Z,100810.66
2023-02-11T12:20:40.939Z,100821.00
2023-02-11T12:23:39.365Z,100825.28
2023-02-11T12:26:18.941Z,100827.78
2023-02-11T12:29:18.562Z,100832.19
2023-02-11T12:31:53.932Z,100829.59
2023-02-11T12:34:46.505Z,100836.47
2023-02-11T12:37:26.611Z,100844.06
2023-02-11T12:40:15.480Z,100833.97
2023-02-11T12:43:16.497Z,100845.91
2023-02-11T12:45:51.345Z,100798.22
2023-02-11T12:48:55.585Z,100858.69
2023-02-11T12:51:37.450Z,100861.03
2023-02-11T12:54:10.211Z,100869.56
2023-02-11T12:56:48.639Z,100774.03
2023-02-11T12:59:29.324Z,100908.22
2023-02-11T13:01:57.860Z,100873.31
2023-02-11T13:04:30.708Z,100868.94
2023-02-11T13:07:06.350Z,100873.63
2023-02-11T13:09:42.038Z,100814.50
2023-02-11T13:12:31.482Z,100880.22
2023-02-11T13:15:06.392Z,100876.47
2023-02-11T13:18:19.404Z,100892.91
2023-02-11T13:20:56.508Z,100879.53
2023-02-11T13:23:41.549Z,100883.31
2023-02-11T13:26:29.441Z,100879.50
2023-02-11T13:29:30.564Z,100886.22
2023-02-11T13:32:11.629Z,100798.38
2023-02-11T13:34:41.041Z,100900.28
2023-02-11T13:37:28.793Z,100903.44
2023-02-11T13:40:20.252Z,100893.00
2023-02-11T13:42:51.428Z,100900.69
2023-02-11T13:45:27.721Z,100910.91
2023-02-11T13:48:04.468Z,100907.38
2023-02-11T13:50:38.083Z,100865.78
2023-02-11T13:53:08.734Z,100912.03
2023-02-11T13:55:36.081Z,100907.66
2023-02-11T13:58:08.570Z,100907.44
2023-02-11T14:00:35.365Z,100917.72
2023-02-11T14:03:41.996Z,100933.53
2023-02-11T14:06:27.157Z,100935.16
2023-02-11T14:09:09.027Z,100942.84
2023-02-11T14:11:41.825Z,100948.94
2023-02-11T14:14:16.184Z,100953.91
2023-02-11T14:17:07.555Z,100961.81
2023-02-11T14:19:39.700Z,100978.34
2023-02-11T14:22:23.684Z,100972.16
2023-02-11T14:24:56.930Z,100978.19
2023-02-11T14:28:08.618Z,100975.91
2023-02-11T14:30:59.277Z,100982.00
2023-02-11T14:33:34.958Z,100987.84
2023-02-11T14:36:19.804Z,100928.38
2023-02-11T14:38:57.538Z,100989.34
2023-02-11T14:41:38.629Z,100937.22
2023-02-11T14:44:15.829Z,101007.63
2023-02-11T14:46:48.218Z,101010.56
2023-02-11T14:49:37.803Z,101012.13
2023-02-11T14:52:17.217Z,100991.19
2023-02-11T14:54:45.145Z,100436.59
2023-02-11T14:57:16.110Z,100905.69
2023-02-11T15:00:21.185Z,101033.63
2023-02-11T15:02:48.354Z,100494.16
2023-02-11T15:05:20.234Z,101036.38
2023-02-11T15:07:52.967Z,100784.16
2023-02-11T15:10:30.700Z,101008.31
2023-02-11T15:13:02.252Z,101013.59
2023-02-11T15:15:30.788Z,100421.41
2023-02-11T15:18:00.849Z,101033.41
2023-02-11T15:20:31.786Z,100991.88
2023-02-11T15:23:08.579Z,101049.38
2023-02-11T15:25:43.410Z,101048.38
2023-02-11T15:28:23.554Z,101003.56
2023-02-11T15:31:04.084Z,100957.41
2023-02-11T15:33:32.714Z,101048.59
2023-02-11T15:36:02.478Z,100984.94
2023-02-11T15:38:30.575Z,101017.19
2023-02-11T15:41:00.939Z,101086.47
2023-02-11T15:43:45.136Z,101097.72
2023-02-11T15:46:18.820Z,101100.09
2023-02-11T15:48:53.882Z,100993.94
2023-02-11T15:51:25.287Z,101112.38
2023-02-11T15:53:56.927Z,101120.00
2023-02-11T15:56:32.890Z,101105.81
2023-02-11T15:59:09.142Z,100985.16
2023-02-11T16:01:38.183Z,101073.22
2023-02-11T16:04:05.647Z,101126.81
2023-02-11T16:06:43.572Z,101132.47
2023-02-11T16:09:10.974Z,101130.28
2023-02-11T16:11:55.455Z,101136.06
2023-02-11T16:14:29.531Z,101135.31
2023-02-11T16:17:03.922Z,100954.09
2023-02-11T16:19:32.618Z,101079.50
2023-02-11T16:22:02.699Z,100999.09
2023-02-11T16:24:35.127Z,101164.88
2023-02-11T16:27:04.400Z,101159.63
2023-02-11T16:29:33.268Z,101127.56
2023-02-11T16:32:08.753Z,101171.53
2023-02-11T16:34:35.901Z,101046.91
2023-02-11T16:37:06.042Z,100980.53
2023-02-11T16:39:33.312Z,101178.69
2023-02-11T16:42:01.269Z,101021.00
2023-02-11T16:44:28.490Z,101115.56
2023-02-11T16:46:58.543Z,100796.31
2023-02-11T16:49:31.327Z,101194.44
2023-02-11T16:52:05.637Z,101104.78
2023-02-11T16:54:32.684Z,101136.66
2023-02-11T16:56:59.550Z,101097.84
2023-02-11T16:59:26.255Z,100982.56
2023-02-11T17:01:54.243Z,101199.22
2023-02-11T17:04:23.317Z,101033.66
2023-02-11T17:06:50.049Z,101066.63
2023-02-11T17:09:30.538Z,101229.13
2023-02-11T17:11:57.915Z,101213.97
2023-02-11T17:14:24.659Z,101171.63
2023-02-11T17:16:51.349Z,101244.66
2023-02-11T17:19:20.918Z,101144.16
2023-02-11T17:21:49.853Z,101226.91
2023-02-11T17:24:16.586Z,101148.41
2023-02-11T17:26:47.532Z,101237.47
2023-02-11T17:29:17.000Z,101235.69
2023-02-11T17:31:46.083Z,101191.16
2023-02-11T17:34:14.565Z,101038.50
2023-02-11T17:36:42.115Z,101246.56
2023-02-11T17:39:09.184Z,101256.06
2023-02-11T17:41:40.053Z,101200.09
2023-02-11T17:44:08.977Z,101119.16
2023-02-11T17:46:39.117Z,101098.53
2023-02-11T17:49:12.435Z,101243.72
2023-02-11T17:51:44.554Z,101159.50
2023-02-11T17:54:22.043Z,101267.22
2023-02-11T17:56:58.204Z,101208.13
2023-02-11T17:59:33.309Z,101194.53
2023-02-11T18:02:06.498Z,101292.53
2023-02-11T18:04:36.712Z,101281.31
2023-02-11T18:07:08.807Z,101226.75
2023-02-11T18:09:40.953Z,101147.25
2023-02-11T18:12:12.722Z,101250.34
2023-02-11T18:14:45.032Z,101305.59
2023-02-11T18:17:16.341Z,101233.06
2023-02-11T18:19:45.035Z,101269.66
2023-02-11T18:22:14.882Z,100843.69
2023-02-11T18:24:43.966Z,101300.25
2023-02-11T18:27:13.830Z,101246.75
2023-02-11T18:29:44.991Z,101104.50
2023-02-11T18:32:15.835Z,101238.06
2023-02-11T18:34:47.195Z,101147.22
2023-02-11T18:37:17.007Z,101294.09
2023-02-11T18:39:44.050Z,101299.19
2023-02-11T18:42:10.886Z,101248.22
2023-02-11T18:44:38.325Z,101294.72
2023-02-11T18:47:08.718Z,101327.63
2023-02-11T18:49:36.233Z,101064.06
2023-02-11T18:52:03.248Z,101317.75
2023-02-11T18:54:33.388Z,101312.25
2023-02-11T18:57:02.894Z,101163.59
2023-02-11T18:59:33.945Z,101306.47
2023-02-11T19:02:04.721Z,101301.53
2023-02-11T19:04:38.662Z,101417.09
2023-02-11T19:07:10.432Z,100603.69
2023-02-11T19:09:40.514Z,101242.34
2023-02-11T19:12:11.649Z,101316.34
2023-02-11T19:14:44.972Z,101171.50
2023-02-11T19:17:14.986Z,101251.44
2023-02-11T19:19:45.741Z,101083.66
2023-02-11T19:22:18.747Z,101239.53
2023-02-11T19:24:50.668Z,101276.09
2023-02-11T19:27:19.493Z,101240.97
2023-02-11T19:29:51.796Z,101321.78
2023-02-11T19:32:24.407Z,101260.41
2023-02-11T19:34:55.142Z,101149.06
2023-02-11T19:37:27.195Z,101341.53
2023-02-11T19:39:57.421Z,101240.50
2023-02-11T19:42:28.893Z,101149.25
2023-02-11T19:45:02.624Z,101319.53
2023-02-11T19:47:32.659Z,101375.38
2023-02-11T19:50:03.476Z,101023.63
2023-02-11T19:52:32.452Z,101323.63
2023-02-11T19:55:01.303Z,101319.50
2023-02-11T19:57:30.463Z,101421.56
2023-02-11T20:00:01.425Z,101335.41
2023-02-11T20:02:42.286Z,101142.38
2023-02-11T20:05:09.874Z,101324.03
2023-02-11T20:07:37.891Z,101212.78
2023-02-11T20:10:09.699Z,101348.28
2023-02-11T20:12:37.442Z,101177.31
2023-02-11T20:15:07.776Z,101331.88
2023-02-11T20:17:37.311Z,101040.13
2023-02-11T20:20:04.220Z,101336.19
2023-02-11T20:22:30.821Z,101339.78
2023-02-11T20:24:57.429Z,101341.91
2023-02-11T20:27:26.327Z,101344.13
2023-02-11T20:29:52.931Z,101240.03
2023-02-11T20:32:19.612Z,101328.59
2023-02-11T20:34:46.452Z,101228.38
2023-02-11T20:37:13.137Z,101384.56
2023-02-11T20:39:41.857Z,101356.28
2023-02-11T20:42:11.536Z,101303.38
2023-02-11T20:44:38.947Z,101366.91
2023-02-11T20:47:05.517Z,101182.94
2023-02-11T20:49:32.181Z,100872.47
2023-02-11T20:51:58.792Z,101365.09
2023-02-11T20:54:25.811Z,101367.34
2023-02-11T20:56:58.125Z,101105.06
2023-02-11T20:59:24.798Z,101347.34
2023-02-11T21:01:54.104Z,101372.66
2023-02-11T21:04:24.601Z,101365.84
2023-02-11T21:06:54.644Z,101357.66
2023-02-11T21:09:23.885Z,101375.50
2023-02-11T21:11:51.901Z,101373.38
2023-02-11T21:14:19.234Z,101369.22
2023-02-11T21:16:47.381Z,101372.34
2023-02-11T21:19:14.330Z,101288.19
2023-02-11T21:21:41.647Z,101373.69
2023-02-11T21:24:09.664Z,101314.16
2023-02-11T21:26:37.231Z,101235.09
2023-02-11T21:29:05.369Z,101248.81
2023-02-11T21:31:33.934Z,101386.47
2023-02-11T21:34:00.908Z,101383.88
2023-02-11T21:36:28.785Z,101376.84
2023-02-11T21:38:55.576Z,101287.28
2023-02-11T21:41:22.903Z,101354.94
2023-02-11T21:43:50.576Z,101354.59
2023-02-11T21:46:18.697Z,101366.06
2023-02-11T21:48:45.527Z,101391.50
2023-02-11T21:51:18.015Z,101395.78
2023-02-11T21:53:45.304Z,101349.78
2023-02-11T21:56:17.361Z,101404.47
2023-02-11T21:58:45.529Z,101171.78
2023-02-11T22:01:18.415Z,101404.31
2023-02-11T22:03:46.295Z,101402.94
2023-02-11T22:06:16.697Z,101400.09
2023-02-11T22:08:43.499Z,101275.94
2023-02-11T22:11:12.385Z,101361.84
2023-02-11T22:13:39.682Z,101291.16
2023-02-11T22:16:10.530Z,101366.44
2023-02-11T22:18:38.021Z,101391.44
2023-02-11T22:21:07.775Z,100894.06
2023-02-11T22:23:35.469Z,101388.78
2023-02-11T22:26:09.905Z,101393.03
2023-02-11T22:28:38.952Z,101334.69
2023-02-11T22:31:06.676Z,101391.16
2023-02-11T22:33:33.779Z,101385.84
2023-02-11T22:36:10.246Z,101306.72
2023-02-11T22:38:36.842Z,101202.81
2023-02-11T22:41:09.598Z,101379.91
2023-02-11T22:43:37.135Z,101379.09
2023-02-11T22:46:05.491Z,101235.19
2023-02-11T22:48:33.537Z,101350.50
2023-02-11T22:51:07.193Z,101399.00
2023-02-11T22:53:34.111Z,101311.25
2023-02-11T22:56:07.005Z,101286.78
2023-02-11T22:58:34.549Z,101317.78
2023-02-11T23:01:01.372Z,101098.50
2023-02-11T23:03:28.862Z,101153.88
2023-02-11T23:05:58.909Z,101345.00
2023-02-11T23:08:26.247Z,101296.13
2023-02-11T23:10:53.218Z,101270.06
2023-02-11T23:13:20.151Z,101247.19
2023-02-11T23:15:47.955Z,101392.28
2023-02-11T23:18:14.924Z,101266.84
2023-02-11T23:20:43.494Z,101391.59
2023-02-11T23:23:10.613Z,101355.38
2023-02-11T23:25:42.708Z,101336.22
2023-02-11T23:28:10.026Z,101245.63
2023-02-11T23:30:36.667Z,101379.97
2023-02-11T23:33:03.345Z,101379.47
2023-02-11T23:35:30.198Z,101387.47
2023-02-11T23:37:56.822Z,101387.88
2023-02-11T23:40:23.428Z,101305.53
2023-02-11T23:42:50.021Z,101393.34
2023-02-11T23:45:16.793Z,101394.41
2023-02-11T23:47:43.518Z,101287.41
2023-02-11T23:50:10.800Z,101405.81
2023-02-11T23:52:37.552Z,101344.47
2023-02-11T23:55:05.058Z,101410.59
2023-02-11T23:57:32.846Z,101389.38
2023-02-11T23:59:59.608Z,101277.44
